sensor_id;sensor_type;location;lat;lon;timestamp;temperature;humidity
7934;DHT22;4012;48.896;9.192;2023-07-31T00:00:07;17.80;99.90
7934;DHT22;4012;48.896;9.192;2023-07-31T00:02:36;17.80;99.90
7934;DHT22;4012;48.896;9.192;2023-07-31T00:05:02;17.80;99.90
7934;DHT22;4012;48.896;9.192;2023-07-31T00:07:28;17.80;99.90
7934;DHT22;4012;48.896;9.192;2023-07-31T00:09:53;17.70;99.90
7934;DHT22;4012;48.896;9.192;2023-07-31T00:12:20;17.60;99.90
7934;DHT22;4012;48.896;9.192;2023-07-31T00:14:45;17.70;99.90
7934;DHT22;4012;48.896;9.192;2023-07-31T00:17:11;17.50;99.90
7934;DHT22;4012;48.896;9.192;2023-07-31T00:19:37;17.50;99.90
7934;DHT22;4012;48.896;9.192;2023-07-31T00:22:03;17.50;99.90
7934;DHT22;4012;48.896;9.192;2023-07-31T00:24:28;17.50;99.90
7934;DHT22;4012;48.896;9.192;2023-07-31T00:26:54;17.40;99.90
7934;DHT22;4012;48.896;9.192;2023-07-31T00:29:19;17.40;99.90
7934;DHT22;4012;48.896;9.192;2023-07-31T00:31:45;17.40;99.90
7934;DHT22;4012;48.896;9.192;2023-07-31T00:34:11;17.40;99.90
7934;DHT22;4012;48.896;9.192;2023-07-31T00:36:36;17.30;99.90
7934;DHT22;4012;48.896;9.192;2023-07-31T00:39:02;17.30;99.90
7934;DHT22;4012;48.896;9.192;2023-07-31T00:41:27;17.30;99.90
7934;DHT22;4012;48.896;9.192;2023-07-31T00:43:53;17.30;99.90
7934;DHT22;4012;48.896;9.192;2023-07-31T00:46:19;17.30;99.90
7934;DHT22;4012;48.896;9.192;2023-07-31T00:48:45;17.20;99.90
7934;DHT22;4012;48.896;9.192;2023-07-31T00:51:11;17.20;99.90
7934;DHT22;4012;48.896;9.192;2023-07-31T00:53:36;17.10;99.90
7934;DHT22;4012;48.896;9.192;2023-07-31T00:56:03;17.10;99.90
7934;DHT22;4012;48.896;9.192;2023-07-31T00:58:29;17.00;99.90
7934;DHT22;4012;48.896;9.192;2023-07-31T01:00:55;17.00;99.90
7934;DHT22;4012;48.896;9.192;2023-07-31T01:03:21;17.00;99.90
7934;DHT22;4012;48.896;9.192;2023-07-31T01:10:50;16.80;99.90
7934;DHT22;4012;48.896;9.192;2023-07-31T01:13:18;16.80;99.90
7934;DHT22;4012;48.896;9.192;2023-07-31T01:15:44;16.80;99.90
7934;DHT22;4012;48.896;9.192;2023-07-31T01:18:10;16.70;99.90
7934;DHT22;4012;48.896;9.192;2023-07-31T01:20:36;16.70;99.90
7934;DHT22;4012;48.896;9.192;2023-07-31T01:28:16;16.60;99.90
7934;DHT22;4012;48.896;9.192;2023-07-31T01:30:45;16.50;99.90
7934;DHT22;4012;48.896;9.192;2023-07-31T01:33:14;16.50;99.90
7934;DHT22;4012;48.896;9.192;2023-07-31T01:35:44;16.50;99.90
7934;DHT22;4012;48.896;9.192;2023-07-31T01:38:09;16.50;99.90
7934;DHT22;4012;48.896;9.192;2023-07-31T01:40:35;16.50;99.90
7934;DHT22;4012;48.896;9.192;2023-07-31T01:43:00;16.50;99.90
7934;DHT22;4012;48.896;9.192;2023-07-31T01:45:26;16.50;99.90
7934;DHT22;4012;48.896;9.192;2023-07-31T01:47:52;16.40;99.90
7934;DHT22;4012;48.896;9.192;2023-07-31T01:50:17;16.40;99.90
7934;DHT22;4012;48.896;9.192;2023-07-31T01:52:43;16.40;99.90
7934;DHT22;4012;48.896;9.192;2023-07-31T01:55:08;16.40;99.90
7934;DHT22;4012;48.896;9.192;2023-07-31T01:57:36;16.40;99.90
7934;DHT22;4012;48.896;9.192;2023-07-31T02:00:01;16.40;99.90
7934;DHT22;4012;48.896;9.192;2023-07-31T02:02:27;16.40;99.90
7934;DHT22;4012;48.896;9.192;2023-07-31T02:04:52;16.40;99.90
7934;DHT22;4012;48.896;9.192;2023-07-31T02:07:18;16.40;99.90
7934;DHT22;4012;48.896;9.192;2023-07-31T02:09:43;16.30;99.90
7934;DHT22;4012;48.896;9.192;2023-07-31T02:12:09;16.30;99.90
7934;DHT22;4012;48.896;9.192;2023-07-31T02:14:35;16.30;99.90
7934;DHT22;4012;48.896;9.192;2023-07-31T02:17:00;16.20;99.90
7934;DHT22;4012;48.896;9.192;2023-07-31T02:19:26;16.20;99.90
7934;DHT22;4012;48.896;9.192;2023-07-31T02:21:52;16.20;99.90
7934;DHT22;4012;48.896;9.192;2023-07-31T02:24:17;16.20;99.90
7934;DHT22;4012;48.896;9.192;2023-07-31T02:26:43;16.20;99.90
7934;DHT22;4012;48.896;9.192;2023-07-31T02:29:08;16.20;99.90
7934;DHT22;4012;48.896;9.192;2023-07-31T02:31:34;16.20;99.90
7934;DHT22;4012;48.896;9.192;2023-07-31T02:33:59;16.20;99.90
7934;DHT22;4012;48.896;9.192;2023-07-31T02:36:25;16.20;99.90
7934;DHT22;4012;48.896;9.192;2023-07-31T02:38:51;16.20;99.90
7934;DHT22;4012;48.896;9.192;2023-07-31T02:41:16;16.20;99.90
7934;DHT22;4012;48.896;9.192;2023-07-31T02:43:42;16.20;99.90
7934;DHT22;4012;48.896;9.192;2023-07-31T02:46:08;16.20;99.90
7934;DHT22;4012;48.896;9.192;2023-07-31T02:48:33;16.20;99.90
7934;DHT22;4012;48.896;9.192;2023-07-31T02:50:59;16.20;99.90
7934;DHT22;4012;48.896;9.192;2023-07-31T02:53:24;16.20;99.90
7934;DHT22;4012;48.896;9.192;2023-07-31T02:55:50;16.30;99.90
7934;DHT22;4012;48.896;9.192;2023-07-31T02:58:15;16.20;99.90
7934;DHT22;4012;48.896;9.192;2023-07-31T03:00:44;16.20;99.90
7934;DHT22;4012;48.896;9.192;2023-07-31T03:03:10;16.20;99.90
7934;DHT22;4012;48.896;9.192;2023-07-31T03:05:36;16.20;99.90
7934;DHT22;4012;48.896;9.192;2023-07-31T03:08:01;16.20;99.90
7934;DHT22;4012;48.896;9.192;2023-07-31T03:10:27;16.10;99.90
7934;DHT22;4012;48.896;9.192;2023-07-31T03:12:52;16.10;99.90
7934;DHT22;4012;48.896;9.192;2023-07-31T03:15:18;16.10;99.90
7934;DHT22;4012;48.896;9.192;2023-07-31T03:17:44;16.10;99.90
7934;DHT22;4012;48.896;9.192;2023-07-31T03:20:10;16.10;99.90
7934;DHT22;4012;48.896;9.192;2023-07-31T03:22:35;16.10;99.90
7934;DHT22;4012;48.896;9.192;2023-07-31T03:25:02;16.10;99.90
7934;DHT22;4012;48.896;9.192;2023-07-31T03:27:28;16.10;99.90
7934;DHT22;4012;48.896;9.192;2023-07-31T03:29:53;16.10;99.90
7934;DHT22;4012;48.896;9.192;2023-07-31T03:32:19;16.10;99.90
7934;DHT22;4012;48.896;9.192;2023-07-31T03:34:44;16.10;99.90
7934;DHT22;4012;48.896;9.192;2023-07-31T03:37:10;16.20;99.90
7934;DHT22;4012;48.896;9.192;2023-07-31T03:39:36;16.20;99.90
7934;DHT22;4012;48.896;9.192;2023-07-31T03:42:01;16.20;99.90
7934;DHT22;4012;48.896;9.192;2023-07-31T03:44:32;16.20;99.90
7934;DHT22;4012;48.896;9.192;2023-07-31T03:47:03;16.20;99.90
7934;DHT22;4012;48.896;9.192;2023-07-31T03:49:29;16.10;99.90
7934;DHT22;4012;48.896;9.192;2023-07-31T03:51:54;16.10;99.90
7934;DHT22;4012;48.896;9.192;2023-07-31T03:54:20;16.10;99.90
7934;DHT22;4012;48.896;9.192;2023-07-31T03:56:45;16.10;99.90
7934;DHT22;4012;48.896;9.192;2023-07-31T03:59:11;16.10;99.90
7934;DHT22;4012;48.896;9.192;2023-07-31T04:01:37;16.10;99.90
7934;DHT22;4012;48.896;9.192;2023-07-31T04:04:02;16.10;99.90
7934;DHT22;4012;48.896;9.192;2023-07-31T04:06:28;16.10;99.90
7934;DHT22;4012;48.896;9.192;2023-07-31T04:08:54;16.20;99.90
7934;DHT22;4012;48.896;9.192;2023-07-31T04:11:19;16.20;99.90
7934;DHT22;4012;48.896;9.192;2023-07-31T04:13:45;16.30;99.90
7934;DHT22;4012;48.896;9.192;2023-07-31T04:16:10;16.30;99.90
7934;DHT22;4012;48.896;9.192;2023-07-31T04:18:37;16.40;99.90
7934;DHT22;4012;48.896;9.192;2023-07-31T04:21:03;16.40;99.90
7934;DHT22;4012;48.896;9.192;2023-07-31T04:23:29;16.50;99.90
7934;DHT22;4012;48.896;9.192;2023-07-31T04:25:54;16.50;99.90
7934;DHT22;4012;48.896;9.192;2023-07-31T04:28:20;16.50;99.90
7934;DHT22;4012;48.896;9.192;2023-07-31T04:30:45;16.60;99.90
7934;DHT22;4012;48.896;9.192;2023-07-31T04:33:11;16.60;99.90
7934;DHT22;4012;48.896;9.192;2023-07-31T04:35:37;16.70;99.90
7934;DHT22;4012;48.896;9.192;2023-07-31T04:38:02;16.80;99.90
7934;DHT22;4012;48.896;9.192;2023-07-31T04:40:28;16.90;99.90
7934;DHT22;4012;48.896;9.192;2023-07-31T04:42:53;16.90;99.90
7934;DHT22;4012;48.896;9.192;2023-07-31T04:45:19;17.00;99.90
7934;DHT22;4012;48.896;9.192;2023-07-31T04:47:44;17.10;99.90
7934;DHT22;4012;48.896;9.192;2023-07-31T04:50:10;17.10;99.90
7934;DHT22;4012;48.896;9.192;2023-07-31T04:52:36;17.20;99.90
7934;DHT22;4012;48.896;9.192;2023-07-31T04:55:01;17.30;99.90
7934;DHT22;4012;48.896;9.192;2023-07-31T04:57:28;17.30;99.90
7934;DHT22;4012;48.896;9.192;2023-07-31T04:59:53;17.40;99.90
7934;DHT22;4012;48.896;9.192;2023-07-31T05:02:19;17.40;99.90
7934;DHT22;4012;48.896;9.192;2023-07-31T05:04:45;17.40;99.90
7934;DHT22;4012;48.896;9.192;2023-07-31T05:07:10;17.50;99.90
7934;DHT22;4012;48.896;9.192;2023-07-31T05:09:36;17.50;99.90
7934;DHT22;4012;48.896;9.192;2023-07-31T05:12:01;17.60;99.90
7934;DHT22;4012;48.896;9.192;2023-07-31T05:14:27;17.70;99.90
7934;DHT22;4012;48.896;9.192;2023-07-31T05:16:53;17.70;99.90
7934;DHT22;4012;48.896;9.192;2023-07-31T05:19:18;17.80;99.90
7934;DHT22;4012;48.896;9.192;2023-07-31T05:21:44;17.90;99.90
7934;DHT22;4012;48.896;9.192;2023-07-31T05:24:10;18.10;99.90
7934;DHT22;4012;48.896;9.192;2023-07-31T05:26:36;18.20;99.90
7934;DHT22;4012;48.896;9.192;2023-07-31T05:29:01;18.50;99.90
7934;DHT22;4012;48.896;9.192;2023-07-31T05:31:27;18.70;99.90
7934;DHT22;4012;48.896;9.192;2023-07-31T05:33:52;18.80;99.90
7934;DHT22;4012;48.896;9.192;2023-07-31T05:36:18;18.90;99.90
7934;DHT22;4012;48.896;9.192;2023-07-31T05:38:44;19.00;99.90
7934;DHT22;4012;48.896;9.192;2023-07-31T05:41:11;19.10;99.90
7934;DHT22;4012;48.896;9.192;2023-07-31T05:43:37;19.20;99.90
7934;DHT22;4012;48.896;9.192;2023-07-31T05:46:06;19.30;99.90
7934;DHT22;4012;48.896;9.192;2023-07-31T05:48:32;19.30;99.90
7934;DHT22;4012;48.896;9.192;2023-07-31T05:50:59;19.20;99.90
7934;DHT22;4012;48.896;9.192;2023-07-31T05:53:25;19.10;99.90
7934;DHT22;4012;48.896;9.192;2023-07-31T05:55:50;19.20;99.90
7934;DHT22;4012;48.896;9.192;2023-07-31T05:58:16;19.20;99.90
7934;DHT22;4012;48.896;9.192;2023-07-31T06:00:41;19.20;99.90
7934;DHT22;4012;48.896;9.192;2023-07-31T06:03:07;19.40;99.90
7934;DHT22;4012;48.896;9.192;2023-07-31T06:05:33;19.60;99.90
7934;DHT22;4012;48.896;9.192;2023-07-31T06:07:58;19.90;99.90
7934;DHT22;4012;48.896;9.192;2023-07-31T06:10:24;20.00;99.90
7934;DHT22;4012;48.896;9.192;2023-07-31T06:12:50;20.10;99.90
7934;DHT22;4012;48.896;9.192;2023-07-31T06:15:15;20.20;99.90
7934;DHT22;4012;48.896;9.192;2023-07-31T06:17:41;20.30;99.90
7934;DHT22;4012;48.896;9.192;2023-07-31T06:20:08;20.20;99.90
7934;DHT22;4012;48.896;9.192;2023-07-31T06:22:33;20.30;99.90
7934;DHT22;4012;48.896;9.192;2023-07-31T06:24:59;20.80;99.90
7934;DHT22;4012;48.896;9.192;2023-07-31T06:27:25;22.10;99.90
7934;DHT22;4012;48.896;9.192;2023-07-31T06:29:50;22.90;99.90
7934;DHT22;4012;48.896;9.192;2023-07-31T06:32:19;22.60;99.90
7934;DHT22;4012;48.896;9.192;2023-07-31T06:34:44;22.40;99.90
7934;DHT22;4012;48.896;9.192;2023-07-31T06:37:10;22.50;99.90
7934;DHT22;4012;48.896;9.192;2023-07-31T06:39:36;23.40;99.90
7934;DHT22;4012;48.896;9.192;2023-07-31T06:42:02;24.30;99.90
7934;DHT22;4012;48.896;9.192;2023-07-31T06:44:28;24.50;99.90
7934;DHT22;4012;48.896;9.192;2023-07-31T06:46:54;24.40;99.90
7934;DHT22;4012;48.896;9.192;2023-07-31T06:49:19;23.70;99.90
7934;DHT22;4012;48.896;9.192;2023-07-31T06:51:45;23.40;99.90
7934;DHT22;4012;48.896;9.192;2023-07-31T06:54:10;23.10;99.90
7934;DHT22;4012;48.896;9.192;2023-07-31T06:56:36;23.50;99.90
7934;DHT22;4012;48.896;9.192;2023-07-31T06:59:02;25.20;99.90
7934;DHT22;4012;48.896;9.192;2023-07-31T07:01:28;27.00;99.90
7934;DHT22;4012;48.896;9.192;2023-07-31T07:03:54;28.60;99.90
7934;DHT22;4012;48.896;9.192;2023-07-31T07:06:22;27.30;99.90
7934;DHT22;4012;48.896;9.192;2023-07-31T07:08:48;27.80;99.90
7934;DHT22;4012;48.896;9.192;2023-07-31T07:11:14;27.90;99.90
7934;DHT22;4012;48.896;9.192;2023-07-31T07:13:40;26.30;99.90
7934;DHT22;4012;48.896;9.192;2023-07-31T07:16:05;25.60;99.90
7934;DHT22;4012;48.896;9.192;2023-07-31T07:18:31;25.60;99.90
7934;DHT22;4012;48.896;9.192;2023-07-31T07:20:56;25.80;99.90
7934;DHT22;4012;48.896;9.192;2023-07-31T07:23:23;26.00;99.90
7934;DHT22;4012;48.896;9.192;2023-07-31T07:25:49;25.90;99.90
7934;DHT22;4012;48.896;9.192;2023-07-31T07:28:15;25.20;99.90
7934;DHT22;4012;48.896;9.192;2023-07-31T07:30:40;25.50;99.90
7934;DHT22;4012;48.896;9.192;2023-07-31T07:33:06;24.70;99.90
7934;DHT22;4012;48.896;9.192;2023-07-31T07:35:36;24.10;99.90
7934;DHT22;4012;48.896;9.192;2023-07-31T07:38:02;24.00;99.90
7934;DHT22;4012;48.896;9.192;2023-07-31T07:40:28;25.40;99.90
7934;DHT22;4012;48.896;9.192;2023-07-31T07:42:53;26.30;99.90
7934;DHT22;4012;48.896;9.192;2023-07-31T07:45:19;27.30;99.90
7934;DHT22;4012;48.896;9.192;2023-07-31T07:47:44;27.70;99.90
7934;DHT22;4012;48.896;9.192;2023-07-31T07:50:10;28.00;99.90
7934;DHT22;4012;48.896;9.192;2023-07-31T07:52:36;27.10;99.90
7934;DHT22;4012;48.896;9.192;2023-07-31T07:55:01;28.00;99.90
7934;DHT22;4012;48.896;9.192;2023-07-31T07:57:28;28.30;99.90
7934;DHT22;4012;48.896;9.192;2023-07-31T07:59:54;30.70;99.90
7934;DHT22;4012;48.896;9.192;2023-07-31T08:02:19;31.40;99.90
7934;DHT22;4012;48.896;9.192;2023-07-31T08:04:45;30.40;99.90
7934;DHT22;4012;48.896;9.192;2023-07-31T08:07:11;31.40;99.90
7934;DHT22;4012;48.896;9.192;2023-07-31T08:09:37;33.10;99.90
7934;DHT22;4012;48.896;9.192;2023-07-31T08:12:04;33.90;99.90
7934;DHT22;4012;48.896;9.192;2023-07-31T08:14:29;33.40;99.90
7934;DHT22;4012;48.896;9.192;2023-07-31T08:16:55;33.20;99.90
7934;DHT22;4012;48.896;9.192;2023-07-31T08:19:21;34.00;99.90
7934;DHT22;4012;48.896;9.192;2023-07-31T08:21:47;32.60;99.90
7934;DHT22;4012;48.896;9.192;2023-07-31T08:24:12;32.60;99.90
7934;DHT22;4012;48.896;9.192;2023-07-31T08:26:38;32.70;99.90
7934;DHT22;4012;48.896;9.192;2023-07-31T08:29:04;32.10;99.90
7934;DHT22;4012;48.896;9.192;2023-07-31T08:31:29;31.00;99.90
7934;DHT22;4012;48.896;9.192;2023-07-31T08:33:55;29.80;99.90
7934;DHT22;4012;48.896;9.192;2023-07-31T08:36:21;29.70;99.90
7934;DHT22;4012;48.896;9.192;2023-07-31T08:38:47;29.80;99.90
7934;DHT22;4012;48.896;9.192;2023-07-31T08:41:13;27.80;99.90
7934;DHT22;4012;48.896;9.192;2023-07-31T08:43:39;28.20;99.90
7934;DHT22;4012;48.896;9.192;2023-07-31T08:46:05;27.70;99.90
7934;DHT22;4012;48.896;9.192;2023-07-31T08:48:31;28.20;99.90
7934;DHT22;4012;48.896;9.192;2023-07-31T08:50:57;29.00;99.90
7934;DHT22;4012;48.896;9.192;2023-07-31T08:53:23;29.40;99.90
7934;DHT22;4012;48.896;9.192;2023-07-31T08:55:49;27.80;99.90
7934;DHT22;4012;48.896;9.192;2023-07-31T08:58:15;28.00;99.90
7934;DHT22;4012;48.896;9.192;2023-07-31T09:00:43;28.70;99.90
7934;DHT22;4012;48.896;9.192;2023-07-31T09:03:13;27.20;99.90
7934;DHT22;4012;48.896;9.192;2023-07-31T09:05:42;27.20;99.90
7934;DHT22;4012;48.896;9.192;2023-07-31T09:08:10;26.60;99.90
7934;DHT22;4012;48.896;9.192;2023-07-31T09:10:43;26.10;99.90
7934;DHT22;4012;48.896;9.192;2023-07-31T09:13:11;25.60;99.90
7934;DHT22;4012;48.896;9.192;2023-07-31T09:15:37;25.50;99.90
7934;DHT22;4012;48.896;9.192;2023-07-31T09:18:05;25.40;99.90
7934;DHT22;4012;48.896;9.192;2023-07-31T09:20:31;24.80;99.90
7934;DHT22;4012;48.896;9.192;2023-07-31T09:23:13;24.40;99.90
7934;DHT22;4012;48.896;9.192;2023-07-31T09:25:41;24.70;99.90
7934;DHT22;4012;48.896;9.192;2023-07-31T09:28:09;25.00;99.90
7934;DHT22;4012;48.896;9.192;2023-07-31T09:30:49;25.20;99.90
7934;DHT22;4012;48.896;9.192;2023-07-31T09:33:16;24.70;99.90
7934;DHT22;4012;48.896;9.192;2023-07-31T09:35:42;24.50;99.90
7934;DHT22;4012;48.896;9.192;2023-07-31T09:38:13;24.80;99.90
7934;DHT22;4012;48.896;9.192;2023-07-31T09:40:41;24.90;99.90
7934;DHT22;4012;48.896;9.192;2023-07-31T09:43:09;24.30;99.90
7934;DHT22;4012;48.896;9.192;2023-07-31T09:45:37;24.90;99.90
7934;DHT22;4012;48.896;9.192;2023-07-31T09:48:03;25.50;99.90
7934;DHT22;4012;48.896;9.192;2023-07-31T09:50:29;26.30;99.90
7934;DHT22;4012;48.896;9.192;2023-07-31T09:52:55;26.60;99.90
7934;DHT22;4012;48.896;9.192;2023-07-31T09:55:20;26.80;99.90
7934;DHT22;4012;48.896;9.192;2023-07-31T09:57:48;27.10;99.90
7934;DHT22;4012;48.896;9.192;2023-07-31T10:00:16;27.00;99.90
7934;DHT22;4012;48.896;9.192;2023-07-31T10:02:46;28.00;99.90
7934;DHT22;4012;48.896;9.192;2023-07-31T10:05:14;28.70;99.90
7934;DHT22;4012;48.896;9.192;2023-07-31T10:07:47;28.30;99.90
7934;DHT22;4012;48.896;9.192;2023-07-31T10:10:16;26.70;99.90
7934;DHT22;4012;48.896;9.192;2023-07-31T10:12:42;27.40;99.90
7934;DHT22;4012;48.896;9.192;2023-07-31T10:15:09;27.30;99.90
7934;DHT22;4012;48.896;9.192;2023-07-31T10:17:35;27.50;99.90
7934;DHT22;4012;48.896;9.192;2023-07-31T10:20:02;27.70;99.90
7934;DHT22;4012;48.896;9.192;2023-07-31T10:22:30;27.40;99.90
7934;DHT22;4012;48.896;9.192;2023-07-31T10:24:58;26.90;99.90
7934;DHT22;4012;48.896;9.192;2023-07-31T10:27:24;26.70;99.90
7934;DHT22;4012;48.896;9.192;2023-07-31T10:29:52;26.90;99.90
7934;DHT22;4012;48.896;9.192;2023-07-31T10:32:20;27.50;99.90
7934;DHT22;4012;48.896;9.192;2023-07-31T10:34:48;27.40;99.90
7934;DHT22;4012;48.896;9.192;2023-07-31T10:37:30;27.10;99.90
7934;DHT22;4012;48.896;9.192;2023-07-31T10:40:06;26.30;99.90
7934;DHT22;4012;48.896;9.192;2023-07-31T10:42:52;27.00;99.90
7934;DHT22;4012;48.896;9.192;2023-07-31T10:45:44;27.80;99.90
7934;DHT22;4012;48.896;9.192;2023-07-31T10:48:16;27.10;99.90
7934;DHT22;4012;48.896;9.192;2023-07-31T10:50:51;26.70;99.90
7934;DHT22;4012;48.896;9.192;2023-07-31T10:53:30;26.40;99.90
7934;DHT22;4012;48.896;9.192;2023-07-31T10:56:00;26.00;99.90
7934;DHT22;4012;48.896;9.192;2023-07-31T10:58:26;26.20;99.90
7934;DHT22;4012;48.896;9.192;2023-07-31T11:00:56;25.60;99.90
7934;DHT22;4012;48.896;9.192;2023-07-31T11:03:25;25.70;99.90
7934;DHT22;4012;48.896;9.192;2023-07-31T11:08:26;26.20;99.90
7934;DHT22;4012;48.896;9.192;2023-07-31T11:13:27;26.20;99.90
7934;DHT22;4012;48.896;9.192;2023-07-31T11:15:53;26.30;99.90
7934;DHT22;4012;48.896;9.192;2023-07-31T11:18:19;26.20;99.90
7934;DHT22;4012;48.896;9.192;2023-07-31T11:20:44;26.00;99.90
7934;DHT22;4012;48.896;9.192;2023-07-31T11:23:11;24.70;99.90
7934;DHT22;4012;48.896;9.192;2023-07-31T11:25:37;25.00;99.90
7934;DHT22;4012;48.896;9.192;2023-07-31T11:28:05;25.40;99.90
7934;DHT22;4012;48.896;9.192;2023-07-31T11:30:31;25.10;99.90
7934;DHT22;4012;48.896;9.192;2023-07-31T11:32:57;25.40;99.90
7934;DHT22;4012;48.896;9.192;2023-07-31T11:35:22;25.40;99.90
7934;DHT22;4012;48.896;9.192;2023-07-31T11:37:48;25.30;99.90
7934;DHT22;4012;48.896;9.192;2023-07-31T11:40:15;25.30;99.90
7934;DHT22;4012;48.896;9.192;2023-07-31T11:42:40;25.20;99.90
7934;DHT22;4012;48.896;9.192;2023-07-31T11:45:07;25.30;99.90
7934;DHT22;4012;48.896;9.192;2023-07-31T11:47:34;25.50;99.90
7934;DHT22;4012;48.896;9.192;2023-07-31T11:50:01;25.70;99.90
7934;DHT22;4012;48.896;9.192;2023-07-31T11:52:29;25.20;99.90
7934;DHT22;4012;48.896;9.192;2023-07-31T11:54:55;25.10;99.90
7934;DHT22;4012;48.896;9.192;2023-07-31T11:57:21;25.20;99.90
7934;DHT22;4012;48.896;9.192;2023-07-31T11:59:48;25.20;99.90
7934;DHT22;4012;48.896;9.192;2023-07-31T12:02:14;25.40;99.90
7934;DHT22;4012;48.896;9.192;2023-07-31T12:04:40;25.40;99.90
7934;DHT22;4012;48.896;9.192;2023-07-31T12:07:06;26.40;99.90
7934;DHT22;4012;48.896;9.192;2023-07-31T12:09:31;26.60;99.90
7934;DHT22;4012;48.896;9.192;2023-07-31T12:11:57;26.10;99.90
7934;DHT22;4012;48.896;9.192;2023-07-31T12:14:27;25.60;99.90
7934;DHT22;4012;48.896;9.192;2023-07-31T12:17:01;25.60;99.90
7934;DHT22;4012;48.896;9.192;2023-07-31T12:19:29;25.80;99.90
7934;DHT22;4012;48.896;9.192;2023-07-31T12:22:02;26.10;99.90
7934;DHT22;4012;48.896;9.192;2023-07-31T12:24:36;25.70;99.90
7934;DHT22;4012;48.896;9.192;2023-07-31T12:27:11;25.30;99.90
7934;DHT22;4012;48.896;9.192;2023-07-31T12:29:38;25.60;99.90
7934;DHT22;4012;48.896;9.192;2023-07-31T12:32:17;25.90;99.90
7934;DHT22;4012;48.896;9.192;2023-07-31T12:34:43;26.50;99.90
7934;DHT22;4012;48.896;9.192;2023-07-31T12:37:09;26.90;99.90
7934;DHT22;4012;48.896;9.192;2023-07-31T12:39:34;27.10;99.90
7934;DHT22;4012;48.896;9.192;2023-07-31T12:42:00;27.30;99.90
7934;DHT22;4012;48.896;9.192;2023-07-31T12:44:26;27.30;99.90
7934;DHT22;4012;48.896;9.192;2023-07-31T12:46:51;26.50;99.90
7934;DHT22;4012;48.896;9.192;2023-07-31T12:49:17;26.70;99.90
7934;DHT22;4012;48.896;9.192;2023-07-31T12:51:43;26.60;99.90
7934;DHT22;4012;48.896;9.192;2023-07-31T12:54:08;26.10;99.90
7934;DHT22;4012;48.896;9.192;2023-07-31T12:56:34;25.60;99.90
7934;DHT22;4012;48.896;9.192;2023-07-31T12:58:59;25.90;99.90
7934;DHT22;4012;48.896;9.192;2023-07-31T13:01:25;26.30;99.90
7934;DHT22;4012;48.896;9.192;2023-07-31T13:03:50;25.80;99.90
7934;DHT22;4012;48.896;9.192;2023-07-31T13:06:16;25.40;99.90
7934;DHT22;4012;48.896;9.192;2023-07-31T13:08:42;25.90;99.90
7934;DHT22;4012;48.896;9.192;2023-07-31T13:11:08;26.50;99.90
7934;DHT22;4012;48.896;9.192;2023-07-31T13:13:34;25.90;99.90
7934;DHT22;4012;48.896;9.192;2023-07-31T13:16:00;26.40;99.90
7934;DHT22;4012;48.896;9.192;2023-07-31T13:18:25;26.40;99.90
7934;DHT22;4012;48.896;9.192;2023-07-31T13:20:51;26.30;99.90
7934;DHT22;4012;48.896;9.192;2023-07-31T13:23:16;26.10;99.90
7934;DHT22;4012;48.896;9.192;2023-07-31T13:25:42;25.90;99.90
7934;DHT22;4012;48.896;9.192;2023-07-31T13:28:08;25.00;99.90
7934;DHT22;4012;48.896;9.192;2023-07-31T13:30:34;25.40;99.90
7934;DHT22;4012;48.896;9.192;2023-07-31T13:32:59;25.60;99.90
7934;DHT22;4012;48.896;9.192;2023-07-31T13:35:25;25.30;99.90
7934;DHT22;4012;48.896;9.192;2023-07-31T13:37:50;25.90;99.90
7934;DHT22;4012;48.896;9.192;2023-07-31T13:40:16;26.30;99.90
7934;DHT22;4012;48.896;9.192;2023-07-31T13:42:42;26.40;99.90
7934;DHT22;4012;48.896;9.192;2023-07-31T13:45:07;26.70;99.90
7934;DHT22;4012;48.896;9.192;2023-07-31T13:47:33;26.40;99.90
7934;DHT22;4012;48.896;9.192;2023-07-31T13:49:59;26.40;99.90
7934;DHT22;4012;48.896;9.192;2023-07-31T13:52:25;26.40;99.90
7934;DHT22;4012;48.896;9.192;2023-07-31T13:54:50;26.40;99.90
7934;DHT22;4012;48.896;9.192;2023-07-31T13:57:16;26.00;99.90
7934;DHT22;4012;48.896;9.192;2023-07-31T13:59:42;26.00;99.90
7934;DHT22;4012;48.896;9.192;2023-07-31T14:02:08;26.10;99.90
7934;DHT22;4012;48.896;9.192;2023-07-31T14:04:33;25.80;99.90
7934;DHT22;4012;48.896;9.192;2023-07-31T14:06:59;25.50;99.90
7934;DHT22;4012;48.896;9.192;2023-07-31T14:09:25;25.70;99.90
7934;DHT22;4012;48.896;9.192;2023-07-31T14:11:50;25.60;99.90
7934;DHT22;4012;48.896;9.192;2023-07-31T14:14:16;25.80;99.90
7934;DHT22;4012;48.896;9.192;2023-07-31T14:16:43;25.90;99.90
7934;DHT22;4012;48.896;9.192;2023-07-31T14:19:08;25.40;99.90
7934;DHT22;4012;48.896;9.192;2023-07-31T14:21:34;24.80;99.90
7934;DHT22;4012;48.896;9.192;2023-07-31T14:24:00;24.50;99.90
7934;DHT22;4012;48.896;9.192;2023-07-31T14:26:25;25.00;99.90
7934;DHT22;4012;48.896;9.192;2023-07-31T14:28:51;25.50;99.90
7934;DHT22;4012;48.896;9.192;2023-07-31T14:31:17;25.90;99.90
7934;DHT22;4012;48.896;9.192;2023-07-31T14:33:42;26.20;99.90
7934;DHT22;4012;48.896;9.192;2023-07-31T14:36:08;25.90;99.90
7934;DHT22;4012;48.896;9.192;2023-07-31T14:38:33;25.50;99.90
7934;DHT22;4012;48.896;9.192;2023-07-31T14:40:59;25.60;99.90
7934;DHT22;4012;48.896;9.192;2023-07-31T14:43:25;25.90;99.90
7934;DHT22;4012;48.896;9.192;2023-07-31T14:45:50;25.80;99.90
7934;DHT22;4012;48.896;9.192;2023-07-31T14:48:17;26.00;99.90
7934;DHT22;4012;48.896;9.192;2023-07-31T14:50:42;25.50;99.90
7934;DHT22;4012;48.896;9.192;2023-07-31T14:53:08;25.70;99.90
7934;DHT22;4012;48.896;9.192;2023-07-31T14:55:33;25.50;99.90
7934;DHT22;4012;48.896;9.192;2023-07-31T14:57:59;25.90;99.90
7934;DHT22;4012;48.896;9.192;2023-07-31T15:00:25;26.10;99.90
7934;DHT22;4012;48.896;9.192;2023-07-31T15:02:51;26.20;99.90
7934;DHT22;4012;48.896;9.192;2023-07-31T15:05:17;26.30;99.90
7934;DHT22;4012;48.896;9.192;2023-07-31T15:07:43;26.30;99.90
7934;DHT22;4012;48.896;9.192;2023-07-31T15:10:08;25.80;99.90
7934;DHT22;4012;48.896;9.192;2023-07-31T15:12:34;25.70;99.90
7934;DHT22;4012;48.896;9.192;2023-07-31T15:14:59;25.30;99.90
7934;DHT22;4012;48.896;9.192;2023-07-31T15:17:25;25.40;99.90
7934;DHT22;4012;48.896;9.192;2023-07-31T15:19:51;25.30;99.90
7934;DHT22;4012;48.896;9.192;2023-07-31T15:22:16;25.40;99.90
7934;DHT22;4012;48.896;9.192;2023-07-31T15:24:42;25.60;99.90
7934;DHT22;4012;48.896;9.192;2023-07-31T15:27:08;25.80;99.90
7934;DHT22;4012;48.896;9.192;2023-07-31T15:29:34;26.00;99.90
7934;DHT22;4012;48.896;9.192;2023-07-31T15:32:05;26.30;99.90
7934;DHT22;4012;48.896;9.192;2023-07-31T15:34:31;26.30;99.90
7934;DHT22;4012;48.896;9.192;2023-07-31T15:36:56;25.50;99.90
7934;DHT22;4012;48.896;9.192;2023-07-31T15:39:22;25.40;99.90
7934;DHT22;4012;48.896;9.192;2023-07-31T15:41:48;25.30;99.90
7934;DHT22;4012;48.896;9.192;2023-07-31T15:44:13;25.10;99.90
7934;DHT22;4012;48.896;9.192;2023-07-31T15:46:39;25.40;99.90
7934;DHT22;4012;48.896;9.192;2023-07-31T15:49:04;25.60;99.90
7934;DHT22;4012;48.896;9.192;2023-07-31T15:51:30;25.00;99.90
7934;DHT22;4012;48.896;9.192;2023-07-31T15:53:55;25.30;99.90
7934;DHT22;4012;48.896;9.192;2023-07-31T15:56:21;25.40;99.90
7934;DHT22;4012;48.896;9.192;2023-07-31T15:58:47;25.30;99.90
7934;DHT22;4012;48.896;9.192;2023-07-31T16:01:12;25.50;99.90
7934;DHT22;4012;48.896;9.192;2023-07-31T16:03:39;25.10;99.90
7934;DHT22;4012;48.896;9.192;2023-07-31T16:06:05;25.30;99.90
7934;DHT22;4012;48.896;9.192;2023-07-31T16:08:30;25.50;99.90
7934;DHT22;4012;48.896;9.192;2023-07-31T16:10:56;25.50;99.90